Terminal Aerodrome Forecast
Issued by NWS Brownsville, TX

Home | Current Version | Previous Version | Text Only | Print | Product List | Glossary On
Versions: 1 2 3 4 5 6 7 8 9 10 11 12 13 14 15 16 17
181
FTUS44 KBRO 252324
TAFHRL
TAF
KHRL 252324Z 2600/2624 12012KT P6SM FEW050
     FM260200 14006KT P6SM FEW015
     FM261000 VRB03KT 5SM BR SKC
     FM261500 18011KT P6SM BKN250
     FM262100 12012KT P6SM SKC=

USA.gov is the U.S. government's official web portal to all federal, state and local government web resources and services.